Time;durP1;ratioP1;P1;durP2;ratioP2;P2;SDS_P1;SDS_P2;PMS_P1;PMS_P2;Temp;Humidity;BMP_temperature;BMP_pressure;BME280_temperature;BME280_humidity;BME280_pressure;Samples;Min_cycle;Max_cycle;Signal;HPM_P1;HPM_P2
2021/11/09 00:00:57;;;;;;;21.30;7.03;;;7.20;1.00;;;;;;5051439;28;20229;-64
2021/11/09 00:03:24;;;;;;;27.50;8.40;;;7.20;2.70;;;;;;5051380;28;20238;-65
2021/11/09 00:05:53;;;;;;;25.50;7.33;;;7.10;75.60;;;;;;5050947;28;20305;-64
2021/11/09 00:08:23;;;;;;;21.30;8.13;;;7.00;99.90;;;;;;5051228;28;20245;-64
2021/11/09 00:10:50;;;;;;;23.97;8.60;;;7.00;99.90;;;;;;5051310;28;20208;-64
2021/11/09 00:13:17;;;;;;;25.53;8.87;;;7.00;99.90;;;;;;5051385;28;20356;-64
2021/11/09 00:15:45;;;;;;;22.23;7.80;;;6.90;99.90;;;;;;5051158;28;20275;-64
2021/11/09 00:18:12;;;;;;;21.23;8.50;;;6.90;99.90;;;;;;5052703;28;20209;-65
2021/11/09 00:20:41;;;;;;;24.37;8.50;;;6.90;99.90;;;;;;5054723;28;20215;-64
2021/11/09 00:23:08;;;;;;;30.47;9.20;;;6.80;99.90;;;;;;5054543;28;20265;-64
2021/11/09 00:25:36;;;;;;;27.27;8.70;;;6.80;99.90;;;;;;5054515;28;20263;-65
2021/11/09 00:28:04;;;;;;;30.07;8.87;;;6.70;99.90;;;;;;5054337;28;20221;-64
2021/11/09 00:30:30;;;;;;;25.53;8.77;;;6.70;99.90;;;;;;5054877;28;20214;-63
2021/11/09 00:32:59;;;;;;;23.50;8.90;;;6.70;99.90;;;;;;5054459;28;20633;-63
2021/11/09 00:35:28;;;;;;;27.90;8.20;;;6.70;99.90;;;;;;5053776;28;20758;-64
2021/11/09 00:37:56;;;;;;;21.57;8.40;;;6.70;99.90;;;;;;5053797;28;20209;-64
2021/11/09 00:40:26;;;;;;;26.97;8.20;;;6.70;99.90;;;;;;5054371;28;20626;-64
2021/11/09 00:42:52;;;;;;;27.53;9.23;;;6.60;99.90;;;;;;5054407;28;20225;-64
2021/11/09 00:45:19;;;;;;;21.80;7.50;;;6.60;99.90;;;;;;5054014;28;20252;-64
2021/11/09 00:47:46;;;;;;;20.50;8.30;;;6.60;99.90;;;;;;5054061;28;20202;-64
2021/11/09 00:50:17;;;;;;;19.67;8.10;;;6.60;99.90;;;;;;5054388;28;20206;-64
2021/11/09 00:52:44;;;;;;;29.53;8.17;;;6.60;99.90;;;;;;5054007;28;20237;-64
2021/11/09 00:55:13;;;;;;;27.53;7.50;;;6.50;99.90;;;;;;5053961;28;20637;-65
2021/11/09 00:57:40;;;;;;;27.17;8.70;;;6.50;99.90;;;;;;5054146;28;20237;-64
2021/11/09 01:00:09;;;;;;;27.40;8.73;;;6.50;99.90;;;;;;5053941;28;20208;-64
2021/11/09 01:02:36;;;;;;;35.10;8.40;;;6.50;99.90;;;;;;5053854;28;20590;-64
2021/11/09 01:05:03;;;;;;;26.50;8.63;;;6.40;99.90;;;;;;5053752;28;20209;-64
2021/11/09 01:07:31;;;;;;;33.43;9.83;;;6.30;99.90;;;;;;5053840;28;20268;-64
2021/11/09 01:09:58;;;;;;;32.47;9.53;;;6.30;99.90;;;;;;5053918;28;20209;-64
2021/11/09 01:12:25;;;;;;;34.20;9.97;;;6.20;99.90;;;;;;5053799;28;20267;-64
2021/11/09 01:14:52;;;;;;;28.43;11.03;;;6.30;99.90;;;;;;5053193;28;20255;-63
2021/11/09 01:17:19;;;;;;;39.30;11.90;;;6.30;1.00;;;;;;5053778;28;20256;-64
2021/11/09 01:19:46;;;;;;;29.93;11.83;;;6.30;1.00;;;;;;5053514;28;20206;-64
2021/11/09 01:22:13;;;;;;;38.83;12.07;;;6.30;1.00;;;;;;5053516;28;20819;-64
2021/11/09 01:24:41;;;;;;;31.93;11.80;;;6.30;1.00;;;;;;5053295;28;20237;-63
2021/11/09 01:27:08;;;;;;;29.23;11.33;;;6.40;65.00;;;;;;5053447;28;20280;-64
2021/11/09 01:29:35;;;;;;;34.27;10.87;;;6.30;99.90;;;;;;5053746;28;20214;-64
2021/11/09 01:32:02;;;;;;;23.67;9.87;;;6.30;99.90;;;;;;5053268;28;20697;-64
2021/11/09 01:34:29;;;;;;;29.83;9.80;;;6.30;99.90;;;;;;5053463;28;20596;-63
2021/11/09 01:36:56;;;;;;;25.00;11.03;;;6.30;89.70;;;;;;5053561;28;20206;-64
2021/11/09 01:39:23;;;;;;;33.07;11.90;;;6.30;69.60;;;;;;5053276;28;20202;-64
2021/11/09 01:41:51;;;;;;;26.60;11.70;;;6.20;94.10;;;;;;5053126;28;20213;-64
2021/11/09 01:44:18;;;;;;;26.77;10.40;;;6.20;99.90;;;;;;5053115;28;20233;-63
2021/11/09 01:46:46;;;;;;;28.83;10.80;;;6.20;99.90;;;;;;5052933;28;20220;-64
2021/11/09 01:49:13;;;;;;;24.43;10.33;;;6.20;99.90;;;;;;5053203;28;20233;-64
2021/11/09 01:51:40;;;;;;;35.23;11.10;;;6.20;99.90;;;;;;5052970;28;20305;-64
2021/11/09 01:54:08;;;;;;;37.93;12.27;;;6.10;99.90;;;;;;5052830;28;20306;-64
2021/11/09 01:56:35;;;;;;;35.30;11.70;;;6.10;99.90;;;;;;5052393;28;20205;-63
2021/11/09 01:59:05;;;;;;;28.50;11.03;;;6.10;99.90;;;;;;5052861;28;20213;-63
2021/11/09 02:01:31;;;;;;;29.00;11.43;;;6.10;99.90;;;;;;5053017;28;20206;-63
2021/11/09 02:04:05;;;;;;;25.33;11.03;;;6.10;99.90;;;;;;5052743;28;20233;-64
2021/11/09 02:06:32;;;;;;;36.20;11.80;;;6.10;99.90;;;;;;5052284;28;20255;-64
2021/11/09 02:09:01;;;;;;;28.80;10.63;;;6.10;99.90;;;;;;5052830;28;20213;-63
2021/11/09 02:11:28;;;;;;;24.07;11.00;;;6.10;99.90;;;;;;5052765;28;20300;-63
2021/11/09 02:13:54;;;;;;;33.17;11.40;;;6.10;99.90;;;;;;5052843;28;20230;-64
2021/11/09 02:16:24;;;;;;;37.97;13.10;;;6.10;99.90;;;;;;5052436;28;20579;-63
2021/11/09 02:18:51;;;;;;;33.70;10.67;;;6.10;99.90;;;;;;5052522;28;20292;-63
2021/11/09 02:21:20;;;;;;;37.03;12.70;;;6.10;99.90;;;;;;5052582;28;20263;-64
2021/11/09 02:23:48;;;;;;;39.90;11.87;;;6.00;99.90;;;;;;5052111;28;20234;-63
2021/11/09 02:26:17;;;;;;;41.27;12.00;;;6.00;99.90;;;;;;5052497;28;20214;-64
2021/11/09 02:28:48;;;;;;;30.27;11.10;;;6.00;99.90;;;;;;5052163;28;20739;-63
2021/11/09 02:31:15;;;;;;;36.40;11.40;;;6.00;99.90;;;;;;5052178;28;20741;-64
2021/11/09 02:33:42;;;;;;;29.63;10.60;;;6.00;99.90;;;;;;5052354;28;20630;-63
2021/11/09 02:36:09;;;;;;;32.33;10.57;;;5.90;99.90;;;;;;5051661;28;20646;-63
2021/11/09 02:38:38;;;;;;;37.57;12.20;;;5.80;99.90;;;;;;5052411;28;20212;-63
2021/11/09 02:41:05;;;;;;;33.60;12.77;;;5.80;99.90;;;;;;5051786;28;20202;-63
2021/11/09 02:43:31;;;;;;;44.03;13.57;;;5.80;99.90;;;;;;5052203;28;20283;-64
2021/11/09 02:46:24;;;;;;;34.07;11.77;;;5.80;99.90;;;;;;5051748;28;20209;-63
2021/11/09 02:48:55;;;;;;;40.13;12.93;;;5.80;99.90;;;;;;5053585;28;20256;-64
2021/11/09 02:51:27;;;;;;;37.80;13.87;;;5.70;99.90;;;;;;5052627;28;20301;-63
2021/11/09 02:53:59;;;;;;;37.13;13.23;;;5.70;99.90;;;;;;5052066;28;20225;-63
2021/11/09 02:56:29;;;;;;;35.47;12.67;;;5.70;99.90;;;;;;5052019;28;20240;-64
2021/11/09 02:59:00;;;;;;;39.13;13.67;;;5.80;99.90;;;;;;5051717;28;20282;-64
2021/11/09 03:01:33;;;;;;;34.97;11.53;;;5.70;99.90;;;;;;5052128;28;20278;-64
2021/11/09 03:04:05;;;;;;;41.27;12.53;;;5.70;99.90;;;;;;5051722;28;20237;-63
2021/11/09 03:06:35;;;;;;;37.23;12.43;;;5.60;99.90;;;;;;5052134;28;20237;-64
2021/11/09 03:09:10;;;;;;;41.23;14.10;;;5.60;99.90;;;;;;5052082;28;20213;-64
2021/11/09 03:11:42;;;;;;;35.47;12.83;;;5.60;99.90;;;;;;5051802;28;20208;-64
2021/11/09 03:14:09;;;;;;;37.70;13.17;;;5.60;99.90;;;;;;5051851;28;20604;-65
2021/11/09 03:16:39;;;;;;;38.80;12.93;;;5.60;99.90;;;;;;5051565;28;20209;-64
2021/11/09 03:19:15;;;;;;;37.10;12.83;;;5.60;99.90;;;;;;5051904;28;20209;-64
2021/11/09 03:46:34;;;;;;;38.00;14.83;;;5.50;1.00;;;;;;5051220;28;20205;-63
2021/11/09 03:49:02;;;;;;;44.70;15.53;;;5.50;1.00;;;;;;5051498;28;20305;-64
2021/11/09 03:51:29;;;;;;;40.50;14.90;;;5.50;1.00;;;;;;5053973;28;20217;-64
2021/11/09 03:53:59;;;;;;;36.33;14.13;;;5.50;1.00;;;;;;5054784;28;20252;-64
2021/11/09 03:56:32;;;;;;;31.43;13.97;;;5.50;1.00;;;;;;5055035;28;20216;-64
2021/11/09 03:59:02;;;;;;;33.90;13.37;;;5.50;4.80;;;;;;5055387;28;20647;-65
2021/11/09 04:01:34;;;;;;;36.40;13.60;;;5.50;6.90;;;;;;5055115;28;20267;-64
2021/11/09 04:04:19;;;;;;;41.33;15.07;;;5.50;3.20;;;;;;5055209;28;20229;-64
2021/11/09 04:06:48;;;;;;;34.03;14.73;;;5.50;2.70;;;;;;5055267;28;20212;-64
2021/11/09 04:09:19;;;;;;;46.83;15.30;;;5.50;1.00;;;;;;5055374;28;20213;-64
2021/11/09 04:11:52;;;;;;;34.93;13.70;;;5.50;1.00;;;;;;5055071;28;20292;-64
2021/11/09 04:14:28;;;;;;;32.70;13.37;;;5.50;1.00;;;;;;5055108;28;20698;-63
2021/11/09 04:16:59;;;;;;;39.77;13.67;;;5.50;1.00;;;;;;5054915;28;20561;-63
2021/11/09 04:19:34;;;;;;;32.63;13.23;;;5.40;1.00;;;;;;5055017;28;20219;-66
2021/11/09 04:25:19;;;;;;;50.40;14.47;;;5.40;1.00;;;;;;5054402;28;20232;-64
2021/11/09 04:27:57;;;;;;;38.80;14.50;;;5.40;1.00;;;;;;5054825;28;20225;-64
2021/11/09 04:30:46;;;;;;;26.93;13.20;;;5.40;1.00;;;;;;5054625;28;20334;-64
2021/11/09 04:53:21;;;;;;;32.67;14.50;;;5.40;17.30;;;;;;5049367;28;20271;-64
2021/11/09 05:01:32;;;;;;;39.97;14.80;;;5.30;2.50;;;;;;5054066;28;20201;-64
2021/11/09 05:09:32;;;;;;;36.53;13.80;;;5.30;1.00;;;;;;5053889;28;20205;-64
2021/11/09 05:11:58;;;;;;;31.90;13.43;;;5.30;1.00;;;;;;5053931;28;20244;-64
2021/11/09 05:14:25;;;;;;;34.47;13.67;;;5.30;1.00;;;;;;5053490;28;20232;-63
2021/11/09 05:16:53;;;;;;;40.80;14.43;;;5.20;1.00;;;;;;5053393;28;20227;-64
2021/11/09 05:19:19;;;;;;;36.77;14.77;;;5.20;1.00;;;;;;5051026;28;20267;-63
2021/11/09 05:21:46;;;;;;;40.33;14.03;;;5.20;1.00;;;;;;5053503;28;20259;-64
2021/11/09 05:24:13;;;;;;;34.83;13.67;;;5.20;1.00;;;;;;5053453;28;20227;-64
2021/11/09 05:26:42;;;;;;;38.73;14.43;;;5.10;1.00;;;;;;5049373;28;20202;-63
2021/11/09 05:29:09;;;;;;;39.77;13.70;;;5.20;1.00;;;;;;5048600;28;20213;-64
2021/11/09 05:31:36;;;;;;;36.33;13.57;;;5.20;1.00;;;;;;5053199;28;20214;-64
2021/11/09 05:34:05;;;;;;;35.83;14.30;;;5.20;1.00;;;;;;5053001;28;20235;-64
2021/11/09 05:36:35;;;;;;;35.33;13.50;;;5.30;1.00;;;;;;5052885;28;20209;-64
2021/11/09 05:39:09;;;;;;;43.13;14.07;;;5.30;1.00;;;;;;5049926;28;20216;-59
2021/11/09 05:41:38;;;;;;;44.90;13.87;;;5.20;1.00;;;;;;5051044;28;20205;-56
2021/11/09 05:44:06;;;;;;;39.27;13.40;;;5.20;1.00;;;;;;5052912;28;20253;-60
2021/11/09 05:46:33;;;;;;;35.13;14.07;;;5.20;1.00;;;;;;5052706;28;20206;-56
2021/11/09 05:49:00;;;;;;;37.20;13.43;;;5.20;1.00;;;;;;5052834;28;20202;-59
2021/11/09 05:51:28;;;;;;;28.50;13.63;;;5.20;1.00;;;;;;5052567;28;20568;-58
2021/11/09 05:53:55;;;;;;;37.43;13.73;;;5.30;1.00;;;;;;5052596;28;20666;-57
2021/11/09 05:56:22;;;;;;;40.37;13.30;;;5.20;1.00;;;;;;5052233;28;20207;-58
2021/11/09 05:58:49;;;;;;;43.00;14.53;;;5.20;1.00;;;;;;5052619;28;20259;-60
2021/11/09 06:01:16;;;;;;;36.93;13.83;;;5.20;1.00;;;;;;5052569;28;20216;-59
2021/11/09 06:03:42;;;;;;;40.30;12.80;;;5.20;1.00;;;;;;5052749;28;20282;-59
2021/11/09 06:06:09;;;;;;;52.10;18.77;;;5.20;1.00;;;;;;5052327;28;20663;-59
2021/11/09 06:08:37;;;;;;;42.93;15.57;;;5.20;1.00;;;;;;5051992;28;20259;-58
2021/11/09 06:11:04;;;;;;;34.90;14.53;;;5.30;1.00;;;;;;5052615;28;20275;-58
2021/11/09 06:13:30;;;;;;;36.97;13.90;;;5.30;1.00;;;;;;5052486;28;20598;-60
2021/11/09 06:15:57;;;;;;;40.87;13.17;;;5.30;1.00;;;;;;5051496;28;20251;-57
2021/11/09 06:18:24;;;;;;;40.23;14.00;;;5.20;1.00;;;;;;5052482;28;20202;-59
2021/11/09 06:20:51;;;;;;;34.60;12.03;;;5.30;1.00;;;;;;5052054;28;20218;-59
2021/11/09 06:23:18;;;;;;;39.77;13.23;;;5.30;1.00;;;;;;5052298;28;20617;-59
2021/11/09 06:25:47;;;;;;;40.23;12.40;;;5.30;1.00;;;;;;5051901;28;20606;-58
2021/11/09 06:28:16;;;;;;;31.77;11.80;;;5.30;1.00;;;;;;5052364;28;20212;-59
2021/11/09 06:30:43;;;;;;;38.40;12.77;;;5.30;1.00;;;;;;5043924;28;21044;-62
2021/11/09 06:33:10;;;;;;;36.60;11.77;;;5.30;1.00;;;;;;5045018;28;20233;-61
2021/11/09 06:35:36;;;;;;;37.17;13.27;;;5.30;1.00;;;;;;5051220;28;20255;-60
2021/11/09 06:38:03;;;;;;;32.63;12.30;;;5.30;1.00;;;;;;5046108;28;20202;-60
2021/11/09 06:40:30;;;;;;;30.63;12.33;;;5.30;1.00;;;;;;5031908;28;20268;-63
2021/11/09 06:42:58;;;;;;;32.00;11.63;;;5.30;1.00;;;;;;5031493;28;20233;-63
2021/11/09 06:45:26;;;;;;;28.70;11.77;;;5.30;1.00;;;;;;5031451;28;20225;-63
2021/11/09 06:47:52;;;;;;;37.47;12.63;;;5.30;99.90;;;;;;5031720;28;20248;-63
2021/11/09 06:50:20;;;;;;;41.03;12.77;;;5.30;99.90;;;;;;5049343;28;20263;-63
2021/11/09 06:52:47;;;;;;;31.73;12.70;;;5.20;99.90;;;;;;5051244;28;20294;-61
2021/11/09 06:55:13;;;;;;;40.80;12.83;;;5.20;99.90;;;;;;5051123;28;20201;-59
2021/11/09 06:57:40;;;;;;;34.80;12.23;;;5.20;99.90;;;;;;5051589;28;20205;-59
2021/11/09 07:00:12;;;;;;;28.50;12.60;;;5.20;99.90;;;;;;5051168;28;20205;-59
2021/11/09 07:02:39;;;;;;;33.00;13.93;;;5.20;1.00;;;;;;5050952;28;20247;-60
2021/11/09 07:05:07;;;;;;;35.30;13.67;;;5.20;1.00;;;;;;5051160;28;20285;-60
2021/11/09 07:07:35;;;;;;;40.37;12.77;;;5.20;1.00;;;;;;5051539;28;20277;-56
2021/11/09 07:10:02;;;;;;;29.07;12.30;;;5.20;1.00;;;;;;5051418;28;20206;-59
2021/11/09 07:12:29;;;;;;;27.43;12.60;;;5.20;1.00;;;;;;5051004;28;20212;-58
2021/11/09 07:14:55;;;;;;;26.60;12.00;;;5.20;1.00;;;;;;5050985;28;20213;-57
2021/11/09 07:17:23;;;;;;;30.33;11.70;;;5.20;1.00;;;;;;5050975;28;20224;-57
2021/11/09 07:19:51;;;;;;;32.53;12.53;;;5.30;1.00;;;;;;5051462;28;20209;-60
2021/11/09 07:22:19;;;;;;;26.37;11.73;;;5.30;1.00;;;;;;5051031;28;20202;-58
2021/11/09 07:24:46;;;;;;;36.07;12.30;;;5.40;1.00;;;;;;5050730;28;20228;-54
2021/11/09 07:27:14;;;;;;;33.30;12.30;;;5.40;1.00;;;;;;5053124;28;20213;-57
2021/11/09 07:29:45;;;;;;;22.17;11.43;;;5.50;1.00;;;;;;5055074;28;20280;-60
2021/11/09 07:32:11;;;;;;;33.00;10.13;;;5.60;99.90;;;;;;5055368;28;20229;-57
2021/11/09 07:34:40;;;;;;;23.90;10.27;;;5.70;99.90;;;;;;5054808;28;20225;-57
2021/11/09 07:37:07;;;;;;;23.00;9.17;;;5.70;99.90;;;;;;5055166;28;20209;-57
2021/11/09 07:39:34;;;;;;;26.70;8.87;;;5.80;1.00;;;;;;5055071;28;20252;-57
2021/11/09 07:42:00;;;;;;;25.97;9.73;;;5.90;1.00;;;;;;5054666;28;20213;-56
2021/11/09 07:44:27;;;;;;;22.10;8.27;;;6.00;1.00;;;;;;5054591;28;20229;-56
2021/11/09 07:46:54;;;;;;;21.63;8.30;;;6.10;99.90;;;;;;5054833;28;20205;-55
2021/11/09 07:49:21;;;;;;;21.60;7.67;;;6.20;99.90;;;;;;5054978;28;20206;-54
2021/11/09 07:51:49;;;;;;;16.20;7.60;;;6.20;99.90;;;;;;5054638;28;20205;-55
2021/11/09 07:54:18;;;;;;;20.43;7.77;;;6.30;99.90;;;;;;5054340;28;20233;-59
2021/11/09 07:56:45;;;;;;;16.57;7.10;;;6.40;99.90;;;;;;5054272;28;20672;-58
2021/11/09 08:02:01;;;;;;;24.67;8.03;;;6.60;99.90;;;;;;5052551;28;20390;-59
2021/11/09 08:04:32;;;;;;;18.30;7.00;;;6.60;81.70;;;;;;5054546;28;20287;-62
2021/11/09 08:07:02;;;;;;;19.43;7.50;;;6.70;55.20;;;;;;5054317;28;20290;-60
2021/11/09 08:09:29;;;;;;;21.60;7.67;;;6.80;27.30;;;;;;5054339;28;20292;-61
2021/11/09 08:11:58;;;;;;;15.20;6.33;;;6.80;11.70;;;;;;5054218;28;20627;-58
2021/11/09 08:14:25;;;;;;;16.57;6.00;;;6.90;2.60;;;;;;5054237;28;20229;-59
2021/11/09 08:16:52;;;;;;;16.33;6.93;;;7.00;1.00;;;;;;5054166;28;20206;-61
2021/11/09 08:19:19;;;;;;;14.63;5.90;;;7.10;1.00;;;;;;5054357;28;20634;-59
2021/11/09 08:21:47;;;;;;;13.80;5.73;;;7.10;1.00;;;;;;5054023;28;20210;-58
2021/11/09 08:24:17;;;;;;;13.10;6.30;;;7.20;1.00;;;;;;5053842;28;20251;-56
2021/11/09 08:26:43;;;;;;;18.03;6.67;;;7.30;1.00;;;;;;5053851;28;20229;-59
2021/11/09 08:29:10;;;;;;;12.07;6.50;;;7.40;1.00;;;;;;5053976;28;20206;-57
2021/11/09 08:31:42;;;;;;;18.37;6.13;;;7.50;1.00;;;;;;5053869;28;20300;-58
2021/11/09 08:34:09;;;;;;;15.73;5.90;;;7.50;1.00;;;;;;5054152;28;20233;-59
2021/11/09 08:36:37;;;;;;;14.27;5.97;;;7.60;1.00;;;;;;5053424;28;20322;-58
2021/11/09 08:39:08;;;;;;;13.70;5.67;;;7.70;1.00;;;;;;5053610;28;20233;-60
2021/11/09 08:41:41;;;;;;;14.83;5.73;;;7.80;1.00;;;;;;5053669;28;20210;-58
2021/11/09 08:44:10;;;;;;;12.57;5.60;;;7.90;1.00;;;;;;5053907;28;20287;-61
2021/11/09 08:46:41;;;;;;;15.67;6.67;;;8.00;1.00;;;;;;5053429;28;20263;-65
2021/11/09 08:49:09;;;;;;;17.50;5.70;;;8.10;1.00;;;;;;5046399;28;20287;-66
2021/11/09 08:51:39;;;;;;;12.00;5.90;;;8.30;1.00;;;;;;5033664;28;20215;-66
2021/11/09 08:54:15;;;;;;;12.77;5.33;;;8.50;1.00;;;;;;5033385;28;20243;-65
2021/11/09 08:57:05;;;;;;;12.17;5.17;;;8.70;1.00;;;;;;5033374;28;20239;-59
2021/11/09 09:04:57;;;;;;;13.13;5.43;;;8.70;1.00;;;;;;5020910;28;20205;-58
2021/11/09 09:07:24;;;;;;;12.03;5.07;;;8.80;1.00;;;;;;5033406;28;20213;-57
2021/11/09 09:09:51;;;;;;;15.13;5.30;;;8.90;1.00;;;;;;5033289;28;20683;-59
2021/11/09 09:12:19;;;;;;;8.50;4.23;;;8.90;1.00;;;;;;5033003;28;20308;-60
2021/11/09 09:14:46;;;;;;;12.93;4.83;;;9.00;1.00;;;;;;5033157;28;20236;-59
2021/11/09 09:17:12;;;;;;;13.60;5.40;;;9.00;1.00;;;;;;5033401;28;20209;-56
2021/11/09 09:19:42;;;;;;;13.47;5.07;;;9.10;1.00;;;;;;5033389;28;20223;-58
2021/11/09 09:22:11;;;;;;;13.23;5.10;;;9.20;1.00;;;;;;5032752;28;20278;-59
2021/11/09 09:25:00;;;;;;;11.30;4.53;;;9.20;1.00;;;;;;5032494;28;20733;-60
2021/11/09 09:27:34;;;;;;;13.57;4.77;;;9.30;1.00;;;;;;5033207;28;20205;-61
2021/11/09 09:33:05;;;;;;;17.97;5.40;;;9.50;1.00;;;;;;5028569;28;20280;-60
2021/11/09 09:52:16;;;;;;;7.23;3.83;;;10.00;1.00;;;;;;5032506;28;20205;-59
2021/11/09 09:55:02;;;;;;;8.23;4.03;;;10.10;1.00;;;;;;5032081;28;20316;-61
2021/11/09 09:57:30;;;;;;;9.97;3.80;;;10.10;1.00;;;;;;5032812;28;20205;-62
2021/11/09 09:59:59;;;;;;;8.20;3.57;;;10.20;1.00;;;;;;5032455;28;20264;-62
2021/11/09 10:02:27;;;;;;;10.17;4.17;;;10.30;1.00;;;;;;5032389;28;20217;-59
2021/11/09 10:04:57;;;;;;;8.87;4.53;;;10.40;1.00;;;;;;5032002;28;20218;-60
2021/11/09 10:07:29;;;;;;;8.37;3.60;;;10.50;1.00;;;;;;5032409;28;20237;-60
2021/11/09 10:09:56;;;;;;;8.10;3.20;;;10.60;1.00;;;;;;5032914;28;20264;-58
2021/11/09 10:12:28;;;;;;;6.60;3.03;;;10.60;1.00;;;;;;5032000;28;20221;-59
2021/11/09 10:15:00;;;;;;;8.07;3.00;;;10.70;1.00;;;;;;5032003;28;20210;-60
2021/11/09 10:17:28;;;;;;;11.23;3.67;;;10.70;1.00;;;;;;5032073;28;20213;-58
2021/11/09 10:19:56;;;;;;;11.43;3.90;;;10.70;1.00;;;;;;5032212;28;20741;-59
2021/11/09 10:22:26;;;;;;;7.80;3.10;;;10.80;1.00;;;;;;5031576;28;20210;-56
2021/11/09 10:25:01;;;;;;;8.00;3.13;;;10.80;1.00;;;;;;5031413;28;20210;-61
2021/11/09 10:27:30;;;;;;;8.20;3.03;;;10.90;1.00;;;;;;5032260;28;20206;-59
2021/11/09 10:29:59;;;;;;;7.30;2.50;;;11.00;1.00;;;;;;5032045;28;20624;-59
2021/11/09 10:32:28;;;;;;;6.10;2.53;;;11.10;1.00;;;;;;5031908;28;20210;-59
2021/11/09 10:34:57;;;;;;;7.10;2.70;;;11.00;1.00;;;;;;5031316;28;20206;-59
2021/11/09 10:37:26;;;;;;;7.20;2.50;;;11.00;99.90;;;;;;5031692;28;20232;-60
2021/11/09 10:39:55;;;;;;;9.77;2.80;;;10.90;99.90;;;;;;5031923;28;20210;-57
2021/11/09 10:42:23;;;;;;;4.97;2.33;;;11.00;99.90;;;;;;5031792;28;20217;-60
2021/11/09 10:44:55;;;;;;;5.20;2.50;;;11.00;99.90;;;;;;5031512;28;20214;-60
2021/11/09 10:47:27;;;;;;;9.30;2.57;;;11.10;99.90;;;;;;5031694;28;20595;-59
2021/11/09 10:49:57;;;;;;;7.70;2.60;;;11.10;1.00;;;;;;5031457;28;20208;-58
2021/11/09 10:52:28;;;;;;;7.80;2.50;;;11.00;99.90;;;;;;5031214;28;20223;-59
2021/11/09 10:55:03;;;;;;;6.37;2.17;;;11.00;99.90;;;;;;5031377;28;20237;-60
2021/11/09 10:57:46;;;;;;;6.90;2.17;;;11.00;99.90;;;;;;5031676;28;20209;-60
2021/11/09 11:00:55;;;;;;;7.20;2.47;;;11.00;99.90;;;;;;5031066;28;20718;-61
2021/11/09 11:03:29;;;;;;;4.93;2.40;;;11.10;99.90;;;;;;5031547;28;20258;-60
2021/11/09 11:06:09;;;;;;;9.47;2.40;;;11.10;99.90;;;;;;5031105;28;20230;-59
2021/11/09 11:08:37;;;;;;;8.27;2.30;;;11.20;99.90;;;;;;5031105;28;20675;-60
2021/11/09 11:11:19;;;;;;;6.77;2.80;;;11.20;99.90;;;;;;5030965;28;20214;-59
2021/11/09 11:13:46;;;;;;;5.77;2.50;;;11.30;99.90;;;;;;5031450;28;20230;-61
2021/11/09 11:16:16;;;;;;;4.60;2.20;;;11.40;99.90;;;;;;5030936;28;20202;-58
2021/11/09 11:18:46;;;;;;;5.53;2.20;;;11.40;99.90;;;;;;5031232;28;20206;-54
2021/11/09 11:21:16;;;;;;;5.10;2.17;;;11.40;99.90;;;;;;5030897;28;20217;-59
2021/11/09 11:23:44;;;;;;;5.87;2.73;;;11.40;99.90;;;;;;5031312;28;20272;-57
2021/11/09 11:26:11;;;;;;;9.63;2.60;;;11.50;99.90;;;;;;5030857;28;20713;-56
2021/11/09 11:28:40;;;;;;;6.40;2.33;;;11.60;99.90;;;;;;5031257;28;20211;-59
2021/11/09 11:31:08;;;;;;;5.43;2.00;;;11.70;99.90;;;;;;5030916;28;20693;-59
2021/11/09 11:33:36;;;;;;;5.00;2.23;;;11.70;99.90;;;;;;5030736;28;20231;-59
2021/11/09 11:36:04;;;;;;;8.43;2.70;;;11.70;99.90;;;;;;5030870;28;20256;-59
2021/11/09 11:38:32;;;;;;;7.33;2.03;;;11.60;99.90;;;;;;5031219;28;20211;-59
2021/11/09 11:41:02;;;;;;;3.93;2.10;;;11.70;99.90;;;;;;5031033;28;20210;-60
2021/11/09 11:43:52;;;;;;;5.37;2.30;;;11.70;99.90;;;;;;5031119;28;20226;-59
2021/11/09 11:46:42;;;;;;;4.37;2.40;;;11.80;99.90;;;;;;5030762;28;20231;-57
2021/11/09 11:49:10;;;;;;;6.73;2.23;;;11.80;99.90;;;;;;5031384;28;20211;-59
2021/11/09 11:51:41;;;;;;;5.17;2.43;;;11.80;99.90;;;;;;5030714;28;20268;-59
2021/11/09 11:54:08;;;;;;;5.57;2.10;;;11.80;99.90;;;;;;5030883;28;20648;-59
2021/11/09 11:56:50;;;;;;;7.40;2.03;;;11.80;99.90;;;;;;5030377;28;20218;-59
2021/11/09 11:59:40;;;;;;;5.17;2.13;;;12.00;99.90;;;;;;5031298;28;20561;-61
2021/11/09 12:02:08;;;;;;;6.53;2.00;;;11.90;99.90;;;;;;5031013;28;20252;-59
2021/11/09 12:04:52;;;;;;;6.87;2.27;;;11.90;99.90;;;;;;5030509;28;20229;-60
2021/11/09 12:07:41;;;;;;;6.10;2.03;;;12.00;99.90;;;;;;5031041;28;20222;-60
2021/11/09 12:10:11;;;;;;;5.60;2.30;;;12.10;99.90;;;;;;5030549;28;20256;-59
2021/11/09 12:12:38;;;;;;;7.17;2.70;;;11.90;99.90;;;;;;5030763;28;20213;-59
2021/11/09 12:15:07;;;;;;;7.30;2.70;;;11.80;99.90;;;;;;5033249;28;20249;-61
2021/11/09 12:17:38;;;;;;;8.57;2.20;;;11.90;99.90;;;;;;5034804;28;20215;-61
2021/11/09 12:20:07;;;;;;;6.50;1.97;;;12.10;99.90;;;;;;5034555;28;20214;-60
2021/11/09 12:22:44;;;;;;;4.57;2.00;;;12.10;99.90;;;;;;5034235;28;20203;-59
2021/11/09 12:25:15;;;;;;;4.03;2.30;;;12.20;99.90;;;;;;5034071;28;20230;-61
2021/11/09 12:28:01;;;;;;;5.50;2.23;;;12.00;99.90;;;;;;5033717;28;20218;-61
2021/11/09 12:30:52;;;;;;;6.27;2.33;;;12.10;99.90;;;;;;5026502;28;20613;-57
2021/11/09 12:33:21;;;;;;;4.17;2.00;;;12.10;99.90;;;;;;5023878;28;20233;-58
2021/11/09 12:35:50;;;;;;;5.43;2.13;;;12.20;99.90;;;;;;5033718;28;20287;-59
2021/11/09 12:38:21;;;;;;;5.37;2.10;;;12.20;99.90;;;;;;5033774;28;20245;-61
2021/11/09 12:40:55;;;;;;;4.57;1.87;;;12.20;99.90;;;;;;5033957;28;20213;-62
2021/11/09 12:43:44;;;;;;;7.03;2.20;;;12.20;99.90;;;;;;5034059;28;20785;-60
2021/11/09 12:46:15;;;;;;;6.60;2.70;;;12.20;99.90;;;;;;5029967;28;20229;-59
2021/11/09 12:48:49;;;;;;;4.30;2.20;;;12.20;99.90;;;;;;5033670;28;20214;-60
2021/11/09 12:51:17;;;;;;;5.43;2.37;;;12.20;99.90;;;;;;5033650;28;20206;-61
2021/11/09 12:53:48;;;;;;;6.53;2.33;;;12.20;99.90;;;;;;5033779;28;20237;-57
2021/11/09 12:56:19;;;;;;;5.10;1.97;;;12.30;99.90;;;;;;5033350;28;20206;-57
2021/11/09 12:58:48;;;;;;;5.33;2.23;;;12.30;99.90;;;;;;5033740;28;20210;-57
2021/11/09 13:01:24;;;;;;;5.47;2.00;;;12.40;99.90;;;;;;5033675;28;20595;-55
2021/11/09 13:04:01;;;;;;;7.37;2.07;;;12.40;99.90;;;;;;5033722;28;20647;-58
2021/11/09 13:06:59;;;;;;;6.73;1.87;;;12.40;99.90;;;;;;5033276;28;20230;-54
2021/11/09 13:09:32;;;;;;;5.57;2.10;;;12.30;99.90;;;;;;5033270;28;20213;-58
2021/11/09 13:12:01;;;;;;;7.20;2.33;;;12.30;99.90;;;;;;5033247;28;20225;-56
2021/11/09 13:14:34;;;;;;;6.33;2.27;;;12.40;99.90;;;;;;5033330;28;20321;-53
2021/11/09 13:17:11;;;;;;;14.40;2.67;;;12.40;99.90;;;;;;5033391;28;20214;-54
2021/11/09 13:19:40;;;;;;;6.20;2.27;;;12.40;99.90;;;;;;5033191;28;20305;-56
2021/11/09 13:22:09;;;;;;;9.33;2.90;;;12.40;99.90;;;;;;5033041;28;20300;-52
2021/11/09 13:24:41;;;;;;;8.43;2.30;;;12.30;99.90;;;;;;5032713;28;20244;-56
2021/11/09 13:27:12;;;;;;;7.87;2.33;;;12.20;99.90;;;;;;5033166;28;20222;-51
2021/11/09 13:29:48;;;;;;;7.07;2.30;;;12.10;99.90;;;;;;5033291;28;20587;-49
2021/11/09 13:32:16;;;;;;;6.37;2.13;;;12.20;99.90;;;;;;5033168;28;20214;-59
2021/11/09 13:34:43;;;;;;;7.00;2.90;;;12.20;99.90;;;;;;5032735;28;20317;-56
2021/11/09 13:37:12;;;;;;;6.70;2.40;;;12.20;99.90;;;;;;5033098;28;20206;-57
2021/11/09 13:39:40;;;;;;;7.07;2.07;;;12.20;99.90;;;;;;5033065;28;20206;-57
2021/11/09 13:42:08;;;;;;;7.43;2.40;;;12.20;99.90;;;;;;5032668;28;20217;-59
2021/11/09 13:44:35;;;;;;;7.37;2.73;;;12.20;99.90;;;;;;5032399;28;20222;-59
2021/11/09 13:47:02;;;;;;;4.30;2.40;;;12.20;99.90;;;;;;5032454;28;20228;-59
2021/11/09 13:49:29;;;;;;;8.00;2.67;;;12.20;99.90;;;;;;5032897;28;20283;-59
2021/11/09 13:51:59;;;;;;;8.43;2.67;;;12.20;99.90;;;;;;5032491;28;20213;-57
2021/11/09 13:54:32;;;;;;;12.00;2.87;;;12.00;99.90;;;;;;5032430;28;20269;-56
2021/11/09 13:57:02;;;;;;;4.70;2.50;;;11.90;99.90;;;;;;5032250;28;20212;-56
2021/11/09 13:59:32;;;;;;;5.47;2.20;;;11.80;99.90;;;;;;5032641;28;20229;-54
2021/11/09 14:02:02;;;;;;;5.07;1.93;;;11.70;99.90;;;;;;5032170;28;20208;-53
2021/11/09 14:04:55;;;;;;;6.40;2.17;;;11.70;99.90;;;;;;5031929;28;20258;-52
2021/11/09 14:15:52;;;;;;;7.73;2.80;;;11.30;99.90;;;;;;5027071;28;20210;-61
2021/11/09 14:18:21;;;;;;;5.50;2.13;;;11.30;99.90;;;;;;5031764;28;20556;-61
2021/11/09 14:20:53;;;;;;;6.07;2.10;;;11.40;99.90;;;;;;5031759;28;20264;-60
2021/11/09 14:23:30;;;;;;;7.87;2.50;;;11.50;99.90;;;;;;5032187;28;20233;-59
2021/11/09 14:25:58;;;;;;;4.47;2.00;;;11.40;99.90;;;;;;5031595;28;20212;-61
2021/11/09 14:28:38;;;;;;;8.27;2.37;;;11.40;99.90;;;;;;5031906;28;20254;-62
2021/11/09 14:31:17;;;;;;;7.87;2.50;;;11.30;99.90;;;;;;5031980;28;20209;-60
2021/11/09 14:33:46;;;;;;;6.17;2.20;;;11.30;99.90;;;;;;5031780;28;20230;-61
2021/11/09 14:36:28;;;;;;;7.97;2.83;;;11.20;99.90;;;;;;5030896;28;20206;-60